Time;durP1;ratioP1;P1;durP2;ratioP2;P2;SDS_P1;SDS_P2;PMS_P1;PMS_P2;Temp;Humidity;BMP_temperature;BMP_pressure;BME280_temperature;BME280_humidity;BME280_pressure;Samples;Min_cycle;Max_cycle;Signal;HPM_P1;HPM_P2
2021/06/18 00:02:11;;;;;;;;;11.75;11.00;;;;;28.40;47.82;100337.63;5005897;28;45499;-72
2021/06/18 00:04:39;;;;;;;;;11.25;11.00;;;;;28.39;48.03;100341.28;4987713;28;49039;-71
2021/06/18 00:07:05;;;;;;;;;11.50;11.25;;;;;28.33;48.09;100345.28;5003853;28;47709;-73
2021/06/18 00:09:30;;;;;;;;;12.00;10.75;;;;;28.34;48.37;100335.41;5010440;28;45313;-72
2021/06/18 00:11:56;;;;;;;;;9.50;7.50;;;;;28.31;48.69;100306.06;4984579;28;45615;-71
2021/06/18 00:14:21;;;;;;;;;9.75;9.00;;;;;28.31;48.44;100312.28;4967784;28;45584;-71
2021/06/18 00:16:46;;;;;;;;;9.50;9.50;;;;;28.32;48.68;100323.88;4984234;28;45319;-71
2021/06/18 00:19:12;;;;;;;;;10.75;9.25;;;;;28.31;48.30;100327.53;4984409;28;45271;-70
2021/06/18 00:21:37;;;;;;;;;8.75;8.75;;;;;28.27;48.80;100318.84;5000921;28;61808;-71
2021/06/18 00:24:03;;;;;;;;;8.25;8.25;;;;;28.25;48.42;100314.56;5001918;28;45144;-72
2021/06/18 00:26:28;;;;;;;;;10.25;10.25;;;;;28.23;48.79;100317.31;5001484;28;46097;-71
2021/06/18 00:28:54;;;;;;;;;8.50;8.50;;;;;28.23;48.50;100321.81;4983683;28;45471;-70
2021/06/18 00:31:19;;;;;;;;;8.00;7.25;;;;;28.20;49.38;100316.69;5001194;28;52725;-72
2021/06/18 00:33:44;;;;;;;;;14.00;10.75;;;;;28.19;48.99;100318.50;4984158;28;45298;-71
2021/06/18 00:36:10;;;;;;;;;11.25;11.00;;;;;28.20;48.90;100322.06;4983847;28;46010;-71
2021/06/18 00:38:35;;;;;;;;;10.50;10.50;;;;;28.20;49.11;100316.69;4981523;28;45414;-71
2021/06/18 00:41:01;;;;;;;;;9.50;9.25;;;;;28.19;48.84;100320.34;4996717;28;52083;-72
2021/06/18 00:43:26;;;;;;;;;10.75;10.25;;;;;28.15;49.01;100312.50;5000089;28;45639;-72
2021/06/18 00:45:51;;;;;;;;;8.75;8.75;;;;;28.16;49.34;100316.91;5001459;28;45428;-71
2021/06/18 00:48:23;;;;;;;;;9.25;9.25;;;;;28.12;48.96;100309.19;4967544;28;45484;-71
2021/06/18 00:50:49;;;;;;;;;11.25;9.50;;;;;28.13;49.08;100313.56;4970831;28;45307;-71
2021/06/18 00:53:14;;;;;;;;;13.25;12.00;;;;;28.10;49.30;100309.28;4992251;28;63424;-71
2021/06/18 00:55:40;;;;;;;;;12.00;11.00;;;;;28.09;49.64;100318.31;5001205;28;45341;-71
2021/06/18 00:58:06;;;;;;;;;9.50;8.75;;;;;28.09;49.43;100321.00;5001098;28;45226;-71
2021/06/18 01:00:31;;;;;;;;;11.25;10.25;;;;;28.08;49.71;100330.00;5007959;28;45318;-71
2021/06/18 01:02:57;;;;;;;;;10.50;9.00;;;;;28.07;50.07;100322.06;4983595;28;45390;-72
2021/06/18 01:05:22;;;;;;;;;9.50;9.50;;;;;28.05;50.27;100315.94;4983412;28;46252;-71
2021/06/18 01:07:57;;;;;;;;;9.25;9.00;;;;;28.04;50.14;100317.75;4983783;28;45356;-72
2021/06/18 01:10:31;;;;;;;;;8.50;8.50;;;;;28.04;49.55;100307.03;5001142;28;45392;-71
2021/06/18 01:13:19;;;;;;;;;9.00;9.00;;;;;28.04;49.64;100298.13;5000611;28;45984;-71
2021/06/18 01:15:58;;;;;;;;;9.50;9.50;;;;;28.05;49.46;100302.53;4978165;28;45543;-72
2021/06/18 01:18:27;;;;;;;;;13.00;11.75;;;;;28.06;49.48;100305.13;4986750;28;45291;-72
2021/06/18 01:21:11;;;;;;;;;10.00;8.50;;;;;28.05;49.91;100313.25;5011918;28;45424;-72
2021/06/18 01:23:39;;;;;;;;;10.00;8.00;;;;;28.05;49.93;100303.38;5021154;28;45459;-72
2021/06/18 01:26:23;;;;;;;;;11.00;8.75;;;;;28.05;50.14;100305.19;4989449;28;47414;-72
2021/06/18 01:28:53;;;;;;;;;8.50;8.00;;;;;28.04;49.49;100301.66;5020232;28;45411;-72
2021/06/18 01:31:31;;;;;;;;;11.00;10.00;;;;;28.03;49.49;100283.84;4986555;28;45284;-72
2021/06/18 01:34:07;;;;;;;;;7.75;6.00;;;;;28.03;49.43;100269.59;4970642;28;45456;-71
2021/06/18 01:36:32;;;;;;;;;9.00;9.00;;;;;28.02;49.60;100271.41;5003293;28;45496;-72
2021/06/18 01:38:58;;;;;;;;;7.00;6.50;;;;;28.01;49.47;100274.22;5018839;28;45416;-72
2021/06/18 01:41:26;;;;;;;;;9.75;6.25;;;;;27.98;50.21;100275.28;4957781;28;45489;-71
2021/06/18 01:43:52;;;;;;;;;6.50;6.50;;;;;27.98;49.78;100267.25;4972103;28;46038;-71
2021/06/18 01:46:19;;;;;;;;;8.25;6.25;;;;;27.99;49.83;100263.59;4983045;28;45378;-71
2021/06/18 01:48:51;;;;;;;;;5.00;5.00;;;;;28.00;49.50;100264.44;4966742;28;45204;-72
2021/06/18 01:51:16;;;;;;;;;6.75;6.75;;;;;28.01;49.50;100266.16;4974636;28;45473;-71
2021/06/18 01:53:43;;;;;;;;;7.50;7.50;;;;;27.98;49.60;100264.56;4959561;28;53639;-71
2021/06/18 01:56:13;;;;;;;;;8.00;5.50;;;;;27.98;49.58;100261.88;4982827;28;45259;-71
2021/06/18 01:58:38;;;;;;;;;6.75;6.75;;;;;27.95;49.61;100264.75;4966610;28;45403;-71
2021/06/18 02:01:03;;;;;;;;;8.00;4.25;;;;;27.98;49.58;100269.06;4971686;28;56952;-71
2021/06/18 02:03:29;;;;;;;;;8.00;6.50;;;;;27.97;49.52;100261.97;4984376;28;45367;-71
2021/06/18 02:05:55;;;;;;;;;8.00;8.00;;;;;27.98;49.77;100261.88;4982670;28;52439;-71
2021/06/18 02:08:21;;;;;;;;;5.75;5.75;;;;;27.98;49.56;100267.25;4966478;28;45484;-71
2021/06/18 02:10:46;;;;;;;;;7.25;7.25;;;;;27.96;49.61;100263.78;4966922;28;45243;-71
2021/06/18 02:13:13;;;;;;;;;6.75;6.75;;;;;27.94;49.41;100278.28;4965904;28;45770;-71
2021/06/18 02:15:39;;;;;;;;;5.00;4.25;;;;;27.90;49.88;100282.16;4966387;28;45372;-71
2021/06/18 02:18:10;;;;;;;;;7.00;7.00;;;;;27.88;49.84;100276.88;4966469;28;45271;-71
2021/06/18 02:20:36;;;;;;;;;4.75;4.75;;;;;27.85;50.22;100263.69;4975480;28;45411;-71
2021/06/18 02:23:02;;;;;;;;;5.50;5.50;;;;;27.83;50.41;100244.19;4983471;28;45342;-71
2021/06/18 02:25:30;;;;;;;;;8.75;8.75;;;;;27.82;50.44;100240.63;4965841;28;58668;-72
2021/06/18 02:27:55;;;;;;;;;6.75;6.00;;;;;27.80;50.16;100230.97;4961921;28;45258;-71
2021/06/18 02:30:21;;;;;;;;;5.25;5.00;;;;;27.84;50.81;100227.13;4988669;28;45874;-71
2021/06/18 02:32:46;;;;;;;;;6.75;5.00;;;;;27.87;50.51;100226.88;4985792;28;45346;-71
2021/06/18 02:35:12;;;;;;;;;5.50;5.50;;;;;27.87;50.58;100221.53;4985658;28;45422;-72
2021/06/18 02:37:37;;;;;;;;;4.50;4.50;;;;;27.88;50.11;100217.88;4998930;28;51362;-71
2021/06/18 02:40:04;;;;;;;;;5.50;5.00;;;;;27.88;50.31;100216.03;4982516;28;45346;-72
2021/06/18 02:42:29;;;;;;;;;5.75;5.00;;;;;27.89;50.15;100206.19;4981997;28;45453;-71
2021/06/18 02:44:55;;;;;;;;;4.25;4.25;;;;;27.89;50.00;100206.19;4965589;28;52735;-72
2021/06/18 02:47:32;;;;;;;;;6.00;6.00;;;;;27.91;50.18;100216.81;4982129;28;45764;-71
2021/06/18 02:50:12;;;;;;;;;5.25;4.50;;;;;27.90;49.42;100210.59;5000084;28;45478;-71
2021/06/18 02:53:22;;;;;;;;;5.75;5.75;;;;;27.91;49.63;100215.00;5012775;28;45539;-71
2021/06/18 02:55:51;;;;;;;;;5.00;4.00;;;;;27.91;49.75;100206.94;4982887;28;45373;-71
2021/06/18 02:58:23;;;;;;;;;7.25;6.25;;;;;27.91;49.37;100212.31;4985210;28;45282;-71
2021/06/18 03:00:49;;;;;;;;;5.00;4.00;;;;;27.90;49.69;100212.41;4979564;28;45445;-71
2021/06/18 03:03:17;;;;;;;;;4.50;4.50;;;;;27.89;49.95;100211.56;4966104;28;45245;-71
2021/06/18 03:05:42;;;;;;;;;5.50;5.50;;;;;27.89;49.36;100208.88;4988753;28;47170;-71
2021/06/18 03:08:09;;;;;;;;;4.25;4.25;;;;;27.88;49.42;100202.63;4967590;28;61316;-71
2021/06/18 03:10:39;;;;;;;;;5.75;5.75;;;;;27.90;49.81;100190.97;4992380;28;45313;-71
2021/06/18 03:13:16;;;;;;;;;4.00;3.75;;;;;27.90;49.43;100204.38;4968813;28;45583;-71
2021/06/18 03:15:43;;;;;;;;;5.50;4.50;;;;;27.90;49.75;100213.28;4995843;28;47460;-71
2021/06/18 03:18:09;;;;;;;;;4.25;4.25;;;;;27.90;49.89;100207.06;4965818;28;46099;-71
2021/06/18 03:20:35;;;;;;;;;5.25;5.25;;;;;27.84;49.38;100209.19;4969279;28;45287;-72
2021/06/18 03:23:01;;;;;;;;;5.00;5.00;;;;;27.86;49.94;100220.66;4968979;28;45525;-71
2021/06/18 03:25:28;;;;;;;;;7.25;5.50;;;;;27.84;49.92;100227.13;4961679;28;48415;-71
2021/06/18 03:27:53;;;;;;;;;5.00;3.50;;;;;27.80;50.03;100247.06;4985788;28;45203;-71
2021/06/18 03:30:19;;;;;;;;;7.00;5.50;;;;;27.79;50.21;100270.34;4961504;28;45378;-71
2021/06/18 03:32:45;;;;;;;;;6.00;5.00;;;;;27.89;50.54;100294.72;4969518;28;45687;-72
2021/06/18 03:35:10;;;;;;;;;8.00;4.50;;;;;27.96;50.27;100293.28;4984341;28;66059;-71
2021/06/18 03:37:36;;;;;;;;;5.25;5.25;;;;;28.02;50.29;100284.81;4981947;28;45476;-71
2021/06/18 03:40:02;;;;;;;;;7.00;7.00;;;;;28.01;50.29;100277.75;4968872;28;45403;-71
2021/06/18 03:42:27;;;;;;;;;5.25;4.00;;;;;28.00;50.38;100283.22;5002169;28;45329;-71
2021/06/18 03:44:53;;;;;;;;;7.50;7.50;;;;;28.07;50.07;100282.69;4992808;28;59049;-71
2021/06/18 03:47:18;;;;;;;;;7.00;5.00;;;;;28.06;50.08;100277.41;4986008;28;45468;-71
2021/06/18 03:49:44;;;;;;;;;4.50;3.75;;;;;28.00;50.47;100261.75;4968237;28;54140;-71
2021/06/18 03:52:09;;;;;;;;;5.25;5.25;;;;;27.88;50.46;100244.69;4980471;28;45524;-71
2021/06/18 03:54:35;;;;;;;;;7.00;5.50;;;;;27.89;51.21;100257.16;4984040;28;68818;-71
2021/06/18 03:57:00;;;;;;;;;6.00;5.00;;;;;27.86;50.79;100260.91;4984445;28;48555;-71
2021/06/18 03:59:26;;;;;;;;;6.25;5.25;;;;;27.83;50.74;100258.44;5003027;28;45626;-71
2021/06/18 04:01:52;;;;;;;;;6.25;6.25;;;;;27.80;51.02;100245.25;4994847;28;61076;-71
2021/06/18 04:04:19;;;;;;;;;6.25;5.25;;;;;27.77;51.58;100247.28;4987772;28;48761;-71
2021/06/18 04:06:44;;;;;;;;;7.50;6.50;;;;;27.77;51.09;100249.97;4985489;28;45358;-71
2021/06/18 04:09:12;;;;;;;;;5.25;4.75;;;;;27.74;51.56;100237.63;4968420;28;45331;-71
2021/06/18 04:11:40;;;;;;;;;6.50;6.00;;;;;27.72;51.57;100239.56;4968818;28;45565;-71
2021/06/18 04:14:06;;;;;;;;;6.00;5.00;;;;;27.67;51.59;100236.34;4983985;28;46053;-71
2021/06/18 04:16:32;;;;;;;;;5.25;5.25;;;;;27.70;51.94;100241.47;4984486;28;45342;-71
2021/06/18 04:18:57;;;;;;;;;6.25;6.25;;;;;27.70;52.13;100225.38;4968263;28;45306;-72
2021/06/18 04:21:23;;;;;;;;;6.00;5.50;;;;;27.69;52.33;100223.69;4967390;28;62167;-71
2021/06/18 04:23:48;;;;;;;;;7.50;6.75;;;;;27.70;51.53;100221.84;4977401;28;47385;-71
2021/06/18 04:26:14;;;;;;;;;6.00;6.00;;;;;27.70;51.80;100219.19;4985019;28;45300;-71
2021/06/18 04:28:39;;;;;;;;;7.50;6.00;;;;;27.66;51.63;100205.13;4976254;28;45263;-71
2021/06/18 04:31:11;;;;;;;;;6.25;6.25;;;;;27.70;51.91;100211.13;5005768;28;45238;-71
2021/06/18 04:33:36;;;;;;;;;5.50;5.50;;;;;27.70;51.88;100212.00;4974379;28;46649;-71
2021/06/18 04:36:02;;;;;;;;;5.75;4.75;;;;;27.70;51.34;100212.00;4999285;28;62104;-71
2021/06/18 04:38:28;;;;;;;;;7.25;6.00;;;;;27.65;51.67;100200.72;4987515;28;45274;-71
2021/06/18 04:40:53;;;;;;;;;6.00;5.75;;;;;27.74;51.62;100207.28;4987074;28;45391;-72
2021/06/18 04:43:19;;;;;;;;;7.25;6.75;;;;;27.75;51.20;100209.00;5003275;28;47057;-71
2021/06/18 04:45:44;;;;;;;;;6.50;6.50;;;;;27.77;51.41;100209.75;4967634;28;45705;-71
2021/06/18 04:48:10;;;;;;;;;4.25;4.25;;;;;27.78;51.42;100198.91;4950429;28;45486;-71
2021/06/18 04:50:36;;;;;;;;;7.25;6.50;;;;;27.78;51.09;100184.63;4984884;28;45255;-71
2021/06/18 04:53:01;;;;;;;;;7.25;6.75;;;;;27.81;50.82;100193.34;5011104;28;46041;-71
2021/06/18 04:55:27;;;;;;;;;5.25;5.25;;;;;27.81;50.69;100195.16;4983502;28;45444;-71
2021/06/18 04:57:53;;;;;;;;;10.75;10.75;;;;;27.83;51.18;100206.63;4957832;28;45275;-72
2021/06/18 05:00:20;;;;;;;;;9.75;9.75;;;;;27.72;51.48;100204.72;4995926;28;45370;-73
2021/06/18 05:02:53;;;;;;;;;10.75;9.50;;;;;27.46;51.79;100193.09;4985082;28;48256;-76
2021/06/18 05:05:18;;;;;;;;;10.00;8.50;;;;;27.33;51.00;100202.94;4983440;28;45887;-76
2021/06/18 05:07:44;;;;;;;;;11.75;10.00;;;;;27.18;52.19;100198.63;5001306;28;45406;-79
2021/06/18 05:10:10;;;;;;;;;10.50;10.25;;;;;27.09;52.94;100199.25;5001215;28;45412;-78
2021/06/18 05:12:35;;;;;;;;;10.00;10.00;;;;;26.92;52.73;100179.78;4983104;28;45425;-77
2021/06/18 05:15:06;;;;;;;;;9.25;9.25;;;;;26.95;52.95;100198.34;5001233;28;45357;-78
2021/06/18 05:17:32;;;;;;;;;10.75;9.75;;;;;26.82;52.98;100183.22;4967195;28;45350;-79
2021/06/18 05:20:03;;;;;;;;;10.00;10.00;;;;;26.86;53.36;100207.00;4999755;28;45435;-77
2021/06/18 05:22:31;;;;;;;;;10.50;10.25;;;;;26.84;53.28;100200.88;4987088;28;47263;-78
2021/06/18 05:24:56;;;;;;;;;9.75;9.75;;;;;26.82;53.41;100199.28;5018959;28;64360;-79
2021/06/18 05:27:22;;;;;;;;;9.50;8.75;;;;;26.88;53.98;100199.72;4993895;28;45500;-78
2021/06/18 05:29:47;;;;;;;;;8.75;8.75;;;;;26.98;53.52;100206.16;4981005;28;45441;-77
2021/06/18 05:32:12;;;;;;;;;12.25;11.75;;;;;27.03;53.18;100206.78;4977906;28;60686;-75
2021/06/18 05:34:38;;;;;;;;;10.75;10.00;;;;;27.00;53.35;100206.91;5002590;28;45397;-74
2021/06/18 05:37:03;;;;;;;;;11.00;9.00;;;;;26.94;53.56;100202.00;5002911;28;45434;-73
2021/06/18 05:39:35;;;;;;;;;10.25;9.25;;;;;26.93;53.48;100205.66;5020482;28;45455;-83
2021/06/18 05:42:00;;;;;;;;;9.25;9.00;;;;;26.87;53.27;100211.41;4970884;28;47786;-73
2021/06/18 05:44:26;;;;;;;;;10.00;9.50;;;;;26.80;53.55;100206.56;5020032;28;45494;-74
2021/06/18 05:46:51;;;;;;;;;9.00;9.00;;;;;26.63;53.70;100181.75;5002816;28;45219;-75
2021/06/18 05:49:17;;;;;;;;;8.75;8.00;;;;;26.65;54.27;100208.41;4969008;28;45467;-75
2021/06/18 05:51:43;;;;;;;;;11.50;10.75;;;;;26.58;53.54;100201.75;5000659;28;45443;-75
2021/06/18 05:54:11;;;;;;;;;9.25;8.75;;;;;26.61;53.79;100205.09;5004546;28;48781;-76
2021/06/18 05:56:37;;;;;;;;;12.75;11.75;;;;;26.66;54.11;100196.75;4986882;28;45428;-72
2021/06/18 05:59:02;;;;;;;;;11.50;11.50;;;;;26.61;54.69;100177.47;5001937;28;45668;-72
2021/06/18 06:01:27;;;;;;;;;11.75;11.50;;;;;26.62;54.40;100195.25;4990235;28;46432;-74
2021/06/18 06:03:54;;;;;;;;;12.25;11.00;;;;;26.64;54.29;100204.88;4965167;28;45280;-71
2021/06/18 06:07:01;;;;;;;;;11.50;11.50;;;;;26.63;54.05;100207.66;5000689;28;45303;-71
2021/06/18 06:09:26;;;;;;;;;10.75;10.75;;;;;26.60;54.47;100202.53;5011227;28;45213;-72
2021/06/18 06:11:54;;;;;;;;;14.00;12.75;;;;;26.65;54.45;100213.78;4985805;28;45354;-72
2021/06/18 06:14:21;;;;;;;;;11.75;10.00;;;;;26.72;54.26;100228.47;5001963;28;45352;-70
2021/06/18 06:16:49;;;;;;;;;10.75;9.00;;;;;26.72;53.93;100223.97;4986181;28;45279;-71
2021/06/18 06:19:17;;;;;;;;;10.00;10.00;;;;;26.71;54.65;100227.63;4985969;28;45424;-73
2021/06/18 06:21:44;;;;;;;;;12.00;10.00;;;;;26.76;53.87;100228.19;4986516;28;46016;-74
2021/06/18 06:24:09;;;;;;;;;9.00;8.25;;;;;26.80;53.49;100227.97;4990500;28;45309;-75
2021/06/18 06:26:35;;;;;;;;;10.50;10.00;;;;;26.81;53.29;100217.16;4982474;28;45476;-74
2021/06/18 06:29:00;;;;;;;;;11.25;11.25;;;;;26.87;53.60;100211.41;4981983;28;45972;-73
2021/06/18 06:31:25;;;;;;;;;11.25;11.25;;;;;26.95;53.13;100213.56;4999777;28;45998;-72
2021/06/18 06:33:51;;;;;;;;;13.50;12.75;;;;;26.97;52.91;100211.63;4982322;28;45429;-73
2021/06/18 06:36:16;;;;;;;;;9.25;8.75;;;;;27.05;53.20;100209.34;4999948;28;45254;-75
2021/06/18 06:38:42;;;;;;;;;9.50;9.00;;;;;27.10;52.54;100217.03;4974332;28;45818;-71
2021/06/18 06:41:07;;;;;;;;;9.50;9.25;;;;;27.15;52.45;100214.94;4982167;28;45378;-73
2021/06/18 06:43:33;;;;;;;;;11.25;11.25;;;;;27.18;52.40;100209.34;5002895;28;45333;-70
2021/06/18 06:45:59;;;;;;;;;10.00;10.00;;;;;27.21;52.24;100210.00;5003568;28;45308;-70
2021/06/18 06:48:24;;;;;;;;;13.75;10.75;;;;;27.24;52.53;100209.78;5011932;28;45185;-70
2021/06/18 06:50:51;;;;;;;;;12.75;11.00;;;;;27.28;52.17;100202.41;4971574;28;68221;-70
2021/06/18 06:53:16;;;;;;;;;11.25;10.00;;;;;27.30;51.64;100222.78;4981292;28;45508;-70
2021/06/18 06:55:42;;;;;;;;;10.50;10.50;;;;;27.32;51.86;100222.66;5004822;28;45888;-69
2021/06/18 06:58:07;;;;;;;;;12.00;10.75;;;;;27.36;52.10;100223.31;4985187;28;45405;-70
2021/06/18 07:00:36;;;;;;;;;12.25;10.75;;;;;27.41;51.45;100219.34;5005389;28;47297;-69
2021/06/18 07:03:01;;;;;;;;;8.50;7.50;;;;;27.46;52.00;100219.91;4977211;28;45961;-70
2021/06/18 07:05:27;;;;;;;;;9.50;9.50;;;;;27.50;51.38;100216.03;5003160;28;45321;-69
2021/06/18 07:07:52;;;;;;;;;11.00;10.00;;;;;27.47;51.50;100218.94;5002613;28;58037;-69
2021/06/18 07:10:18;;;;;;;;;12.75;10.00;;;;;27.54;50.73;100216.66;5002730;28;45310;-70
2021/06/18 07:12:43;;;;;;;;;9.75;9.75;;;;;27.51;50.43;100220.44;4984991;28;45273;-69
2021/06/18 07:15:09;;;;;;;;;11.00;10.00;;;;;27.40;50.92;100214.09;4985217;28;45171;-70
2021/06/18 07:17:35;;;;;;;;;8.75;8.75;;;;;27.34;50.99;100220.72;4985261;28;45429;-69
2021/06/18 07:20:03;;;;;;;;;9.00;8.75;;;;;27.28;51.59;100224.72;4985465;28;47503;-70
2021/06/18 07:22:30;;;;;;;;;11.00;11.00;;;;;27.24;51.10;100230.38;4961003;28;45398;-69
2021/06/18 07:24:55;;;;;;;;;7.50;7.50;;;;;27.24;50.57;100230.38;4977173;28;45496;-69
2021/06/18 07:27:23;;;;;;;;;10.50;9.00;;;;;27.25;50.91;100232.09;4985132;28;45310;-70
2021/06/18 07:29:48;;;;;;;;;9.50;7.75;;;;;27.27;50.72;100236.38;5002985;28;45370;-70
2021/06/18 07:32:13;;;;;;;;;9.25;9.25;;;;;27.29;50.18;100238.97;4984749;28;45324;-71
2021/06/18 07:34:39;;;;;;;;;7.50;7.50;;;;;27.30;50.81;100246.91;4984361;28;56930;-70
2021/06/18 07:37:07;;;;;;;;;11.25;11.25;;;;;27.28;50.64;100245.28;4968472;28;45477;-70
2021/06/18 07:39:33;;;;;;;;;8.50;8.50;;;;;27.26;50.57;100244.50;4969004;28;46150;-70
2021/06/18 07:41:58;;;;;;;;;8.00;7.75;;;;;27.27;50.79;100243.56;5002320;28;45365;-70
2021/06/18 07:44:24;;;;;;;;;9.00;8.00;;;;;27.28;51.02;100247.97;4984650;28;45480;-70
2021/06/18 07:46:49;;;;;;;;;10.50;10.50;;;;;27.31;50.75;100255.78;4968684;28;54778;-70
2021/06/18 07:49:15;;;;;;;;;8.50;8.25;;;;;27.27;50.43;100247.09;4966737;28;46822;-70
2021/06/18 07:51:40;;;;;;;;;12.00;9.75;;;;;27.27;50.83;100248.91;5017313;28;45407;-70
2021/06/18 07:54:12;;;;;;;;;7.75;7.75;;;;;27.22;50.84;100241.19;5006728;28;45386;-71
2021/06/18 07:56:42;;;;;;;;;9.25;9.25;;;;;27.20;50.71;100244.97;4984455;28;45403;-70
2021/06/18 07:59:08;;;;;;;;;7.25;6.25;;;;;27.16;50.73;100246.97;4983425;28;48042;-70
2021/06/18 08:01:33;;;;;;;;;7.25;7.00;;;;;27.14;50.88;100250.72;4974267;28;45515;-70
2021/06/18 08:03:59;;;;;;;;;9.25;7.75;;;;;27.14;50.85;100256.06;5001629;28;55389;-70
2021/06/18 08:06:24;;;;;;;;;7.75;7.50;;;;;27.14;50.47;100253.41;4984039;28;45187;-70
2021/06/18 08:08:50;;;;;;;;;9.25;8.75;;;;;27.14;50.43;100256.94;4984169;28;47833;-70
2021/06/18 08:11:15;;;;;;;;;9.00;9.00;;;;;27.12;49.99;100232.06;5002051;28;45300;-70
2021/06/18 08:13:43;;;;;;;;;7.75;7.75;;;;;27.16;50.86;100241.59;4970258;28;45201;-70
2021/06/18 08:16:09;;;;;;;;;8.50;8.50;;;;;27.20;50.08;100239.59;4987987;28;45551;-70
2021/06/18 08:18:35;;;;;;;;;8.25;8.25;;;;;27.21;50.47;100242.16;4987442;28;45383;-71
2021/06/18 08:21:02;;;;;;;;;10.75;10.50;;;;;27.21;49.89;100230.59;4987663;28;45426;-71
2021/06/18 08:23:27;;;;;;;;;10.50;9.25;;;;;27.26;50.23;100236.47;4968543;28;45448;-71
2021/06/18 08:25:52;;;;;;;;;7.75;7.75;;;;;27.26;50.06;100234.66;5001550;28;53917;-70
2021/06/18 08:28:18;;;;;;;;;9.25;8.00;;;;;27.28;49.87;100247.97;5000233;28;66268;-69
2021/06/18 08:30:43;;;;;;;;;7.50;7.50;;;;;27.29;50.02;100230.94;5001514;28;45327;-70
2021/06/18 08:33:09;;;;;;;;;8.50;6.75;;;;;27.34;49.69;100234.13;5001161;28;47740;-70
2021/06/18 08:35:34;;;;;;;;;8.50;8.25;;;;;27.40;49.31;100231.03;5001494;28;45219;-71
2021/06/18 08:38:02;;;;;;;;;9.75;9.50;;;;;27.46;49.36;100230.63;5001294;28;45180;-70
2021/06/18 08:40:29;;;;;;;;;6.25;6.25;;;;;27.52;49.59;100227.50;5001511;28;45368;-71
2021/06/18 08:42:54;;;;;;;;;9.25;9.00;;;;;27.54;49.27;100212.19;4983230;28;45513;-71
2021/06/18 08:45:20;;;;;;;;;10.50;9.00;;;;;27.59;49.56;100210.03;4983770;28;45736;-71
2021/06/18 08:47:45;;;;;;;;;10.75;8.25;;;;;27.59;49.27;100214.53;5000716;28;58214;-71
2021/06/18 08:50:11;;;;;;;;;8.00;8.00;;;;;27.63;48.92;100216.06;5001333;28;45219;-72
2021/06/18 08:52:38;;;;;;;;;7.00;7.00;;;;;27.63;49.26;100218.75;4979856;28;45443;-70
2021/06/18 08:55:04;;;;;;;;;10.00;7.75;;;;;27.67;48.84;100216.72;4967395;28;45479;-69
2021/06/18 08:57:29;;;;;;;;;9.75;9.75;;;;;27.71;49.26;100218.19;5000452;28;46186;-70
2021/06/18 08:59:55;;;;;;;;;9.75;8.75;;;;;27.74;48.47;100218.00;5007148;28;45215;-69
2021/06/18 09:02:20;;;;;;;;;10.50;8.25;;;;;27.74;48.27;100231.41;5001152;28;52165;-70
2021/06/18 09:05:12;;;;;;;;;7.25;6.00;;;;;27.74;47.79;100231.41;4981583;28;62846;-69
2021/06/18 09:07:47;;;;;;;;;6.75;6.75;;;;;27.69;47.72;100239.78;5010169;28;46224;-69
2021/06/18 09:10:32;;;;;;;;;8.00;7.00;;;;;27.66;48.04;100240.00;5003729;28;45246;-72
2021/06/18 09:13:34;;;;;;;;;8.75;7.75;;;;;27.64;47.67;100231.16;5007786;28;45245;-70
2021/06/18 09:15:59;;;;;;;;;10.75;9.00;;;;;27.64;47.99;100231.16;4973583;28;45322;-70
2021/06/18 09:18:28;;;;;;;;;9.50;7.25;;;;;27.67;47.76;100238.16;5001345;28;45926;-70
2021/06/18 09:21:21;;;;;;;;;8.00;7.00;;;;;27.68;47.96;100240.72;4991311;28;45221;-70
2021/06/18 09:23:48;;;;;;;;;8.75;7.25;;;;;27.64;47.51;100231.16;4983940;28;45355;-72
2021/06/18 09:26:27;;;;;;;;;7.00;7.00;;;;;27.72;46.86;100233.34;4964123;28;45249;-70
2021/06/18 09:29:04;;;;;;;;;8.00;5.75;;;;;27.74;47.31;100228.72;4993160;28;46979;-71
2021/06/18 09:31:58;;;;;;;;;7.50;6.25;;;;;27.76;47.17;100242.88;4999324;28;45416;-70
2021/06/18 09:35:01;;;;;;;;;10.00;8.50;;;;;27.78;47.07;100235.59;5009699;28;45503;-69
2021/06/18 09:37:34;;;;;;;;;6.25;6.25;;;;;27.80;46.57;100236.31;4982695;28;45875;-71
2021/06/18 09:40:01;;;;;;;;;10.00;7.00;;;;;27.84;47.02;100243.22;4967631;28;45635;-72
2021/06/18 09:42:26;;;;;;;;;7.00;6.75;;;;;27.87;46.63;100233.09;5001704;28;45261;-70
2021/06/18 09:45:27;;;;;;;;;8.00;7.00;;;;;27.91;46.11;100238.28;4985363;28;45496;-72
2021/06/18 09:47:53;;;;;;;;;6.75;6.75;;;;;27.78;46.74;100209.63;5001308;28;45322;-70
2021/06/18 09:50:31;;;;;;;;;7.50;7.50;;;;;27.95;46.95;100243.28;4998618;28;46956;-70
2021/06/18 09:53:22;;;;;;;;;6.75;6.25;;;;;27.98;47.20;100248.47;4979912;28;45345;-73
2021/06/18 09:55:59;;;;;;;;;9.00;9.00;;;;;28.01;46.83;100252.75;4982312;28;45307;-69
2021/06/18 09:58:32;;;;;;;;;7.50;7.25;;;;;28.02;46.60;100244.59;4968432;28;45880;-70
2021/06/18 10:01:21;;;;;;;;;5.00;5.00;;;;;28.03;46.13;100248.13;4965789;28;48187;-70
2021/06/18 10:04:25;;;;;;;;;7.50;6.25;;;;;28.07;45.95;100255.00;4975329;28;45442;-74
2021/06/18 10:06:51;;;;;;;;;7.00;4.50;;;;;28.08;45.33;100252.19;4968926;28;45409;-69
2021/06/18 10:09:17;;;;;;;;;8.00;6.25;;;;;28.11;45.55;100260.03;4985206;28;45266;-69
2021/06/18 10:11:45;;;;;;;;;5.25;4.00;;;;;28.15;44.52;100256.16;5012255;28;46633;-71
2021/06/18 10:14:10;;;;;;;;;7.50;5.75;;;;;28.17;44.32;100256.91;4992270;28;45470;-72
2021/06/18 10:16:36;;;;;;;;;6.00;6.00;;;;;28.16;43.85;100254.34;5006561;28;45461;-68
2021/06/18 10:19:02;;;;;;;;;4.25;2.25;;;;;28.16;43.76;100255.19;4991647;28;45599;-70
2021/06/18 10:21:28;;;;;;;;;5.00;3.00;;;;;28.16;44.39;100257.03;4982137;28;45485;-70
2021/06/18 10:23:58;;;;;;;;;5.25;3.75;;;;;28.16;44.15;100257.03;4991092;28;45469;-71
2021/06/18 10:26:24;;;;;;;;;4.00;4.00;;;;;28.16;44.05;100271.28;5006005;28;45383;-69
2021/06/18 10:28:54;;;;;;;;;4.00;4.00;;;;;28.16;43.90;100270.44;4991143;28;45491;-70
2021/06/18 10:31:31;;;;;;;;;4.75;4.25;;;;;28.17;44.51;100261.41;4965341;28;47948;-72
2021/06/18 10:34:11;;;;;;;;;5.00;5.00;;;;;28.14;44.23;100267.84;4999926;28;45318;-69
2021/06/18 10:36:37;;;;;;;;;5.75;4.25;;;;;28.09;44.36;100264.66;4974042;28;45403;-70
2021/06/18 10:39:12;;;;;;;;;5.25;4.75;;;;;28.06;44.90;100270.25;4983729;28;45200;-68
2021/06/18 10:41:45;;;;;;;;;4.25;4.00;;;;;28.05;44.52;100276.53;4972285;28;48319;-69
2021/06/18 10:44:10;;;;;;;;;7.00;5.25;;;;;28.05;44.25;100265.81;4981367;28;45399;-70
2021/06/18 10:46:37;;;;;;;;;4.00;4.00;;;;;28.03;44.27;100273.13;4981590;28;55421;-72
2021/06/18 10:49:02;;;;;;;;;5.00;4.75;;;;;28.05;44.96;100281.06;4999557;28;45151;-70
2021/06/18 10:51:32;;;;;;;;;5.00;5.00;;;;;28.06;44.71;100278.28;5007892;28;45260;-69
2021/06/18 10:54:16;;;;;;;;;5.00;3.25;;;;;28.10;45.12;100287.81;5001631;28;45397;-69
2021/06/18 10:56:44;;;;;;;;;4.50;4.50;;;;;28.13;45.17;100284.91;4999541;28;45346;-71
2021/06/18 10:59:19;;;;;;;;;4.00;4.00;;;;;28.14;44.90;100285.78;4998890;28;45334;-77
2021/06/18 11:01:45;;;;;;;;;7.25;5.50;;;;;28.16;44.33;100290.09;4972137;28;47189;-74
2021/06/18 11:04:11;;;;;;;;;5.75;5.75;;;;;28.11;44.98;100281.47;4965879;28;45398;-71
2021/06/18 11:06:48;;;;;;;;;5.00;5.00;;;;;28.13;44.58;100287.59;4994738;28;60308;-73
2021/06/18 11:09:40;;;;;;;;;5.00;5.00;;;;;28.10;44.45;100279.78;4999497;28;45353;-69
2021/06/18 11:12:23;;;;;;;;;4.50;4.50;;;;;28.09;44.56;100290.63;5010890;28;48892;-70
2021/06/18 11:14:53;;;;;;;;;4.50;4.00;;;;;28.08;44.36;100295.13;4988050;28;45765;-71
2021/06/18 11:17:45;;;;;;;;;5.50;4.50;;;;;28.07;43.30;100287.19;5001881;28;45306;-73
2021/06/18 11:20:15;;;;;;;;;4.00;3.00;;;;;28.04;43.84;100290.94;4965426;28;45406;-71
2021/06/18 11:22:55;;;;;;;;;2.75;2.75;;;;;27.99;43.47;100278.81;4981316;28;46065;-71
2021/06/18 11:28:19;;;;;;;;;5.50;3.75;;;;;27.92;43.43;100289.13;5001741;28;45405;-71
2021/06/18 11:31:09;;;;;;;;;5.25;5.25;;;;;27.89;43.13;100289.34;4997875;28;45300;-70
2021/06/18 11:33:50;;;;;;;;;3.00;3.00;;;;;27.85;43.20;100287.84;5012660;28;45626;-71